LIPKEDFH

Guest
Details From LIPK - Forli
To EDFH - Frankfurt Hahn
Flight Number -
Tags Generated
Created
Modified
Stats Distance 396 nm / 734 km
Max Altitude 0 ft / 0 m
Waypoints 3
Social Downloads 0
Likes 0
Share VATSIM

Download

Looking for another format? Having issues loading an existing format? Contact us
Advertisement - Login to hide

Notes

Generated

Route

LIPK HAN12 EDFH

ID Type Via Altitude Latitude Longitude Leg Dist Tot Dist Heading (true) Name
O LIPK APT - 0 ft / 0 m 44.19977˚ 12.05673˚ - 0 nm - -
HAN12 FIX - 0 ft / 0 m 49.92964˚ 7.24591˚ 396 nm 396 nm 332° / 328° -
O EDFH APT - 0 ft / 0 m 49.93139˚ 7.24688˚ 0 nm 396 nm 20° / 20° -

Altitude Profile

Advertisement - Login to hide

Weather


0- 5 10 15 20 25 30 35+ Temperature / ° C

Clouds and Precipitation
Forecast for 2017-12-13 12:00 UTC. Updated 5 minutes ago

Ground ~20,000 ft ~40,000 ft Winds

LIPK

Details ICAO LIPK (FRL)
Name FORLI
Region Italy
Timezone Europe/Rome (UTC+1.0)
Stats Elevation 97 ft / 30 m (AMSL)
Location 44.194743° 12.070087°
Runways 1
Magnetic Variation 3.066° E

METAR

LIPK 131050Z 00000KT CAVOK 10/04 Q1017

Decode

TAF

Not found

Departure Runways

ID Width Length Bearing (true) Bearing (mag) Surface Threshold Offset Overrun Length
12 148 ft / 45 m 7,893 ft / 2,406 m 117.70° 114.63° Asphalt 0 ft / 0 m 0 ft / 0 m
30 148 ft / 45 m 7,893 ft / 2,406 m 297.72° 294.65° Asphalt 0 ft / 0 m 0 ft / 0 m

EDFH

Details ICAO EDFH (HHN)
Name Frankfurt Hahn
Region Germany - Civil
Timezone Europe/Berlin (UTC+1.0)
Stats Elevation 1,649 ft / 503 m (AMSL)
Location 49.945808° 7.261082°
Runways 1
Magnetic Variation 1.982° E

METAR

EDFH 131050Z 21019G30KT 9999 -SN SCT010 BKN019 01/01 Q1006

Decode

TAF

TAF EDFH 130500Z 1306/1406 22012KT 9999 SCT015 BECMG 1306/1309 22015G25KT TEMPO 1306/1309 BKN008 TEMPO 1309/1316 2500 SNRA BKN006 PROB40 TEMPO 1309/1315 1200 SN OVC002 TEMPO 1316/1320 BKN004 TEMPO 1320/1324 24020G35KT 3000 RA BKN004 TEMPO 1400/1406 25020G45KT 4000 SHRA BKN008CB

Decode

Destination Runways

ID Width Length Bearing (true) Bearing (mag) Surface Threshold Offset Overrun Length
03 148 ft / 45 m 12,457 ft / 3,797 m 32.37° 30.39° Asphalt 3,461 ft / 1,055 m 0 ft / 0 m
21 148 ft / 45 m 12,457 ft / 3,797 m 212.39° 210.41° Asphalt 984 ft / 300 m 0 ft / 0 m

Approach Navaids

Runway Type Ident Frequency Range Bearing (true) Bearing (mag) Slope Elevation
03 Localiser IHAE 109.30 MHz 18 nm / 33 km 32.39° 30.41° - 1,595 ft / 486 m (AMSL)
03 Glidescope IHAE 109.30 MHz 10 nm / 19 km 32.39° 30.41° 3.00° 1,648 ft / 502 m (AMSL)
21 Localiser IHAW 111.30 MHz 18 nm / 33 km 212.38° 210.40° - 1,648 ft / 502 m (AMSL)
21 Glidescope IHAW 111.30 MHz 10 nm / 19 km 212.39° 210.41° 3.00° 1,600 ft / 488 m (AMSL)